Time;durP1;ratioP1;P1;durP2;ratioP2;P2;SDS_P1;SDS_P2;PMS_P1;PMS_P2;Temp;Humidity;BMP_temperature;BMP_pressure;BME280_temperature;BME280_humidity;BME280_pressure;Samples;Min_cycle;Max_cycle;Signal;HPM_P1;HPM_P2
2023/07/12 00:00:29;;;;;;;3.30;2.40;;;19.60;99.90;;;;;;5038939;28;20476;-95
2023/07/12 00:02:56;;;;;;;3.90;2.40;;;19.60;99.90;;;;;;5035280;28;20472;-94
2023/07/12 00:05:26;;;;;;;2.93;2.00;;;19.50;99.90;;;;;;5040030;28;20468;-95
2023/07/12 00:07:53;;;;;;;2.83;2.30;;;19.60;99.90;;;;;;5039707;28;20466;-94
2023/07/12 00:10:22;;;;;;;2.60;2.40;;;19.60;99.90;;;;;;5039770;28;20472;-95
2023/07/12 00:12:50;;;;;;;2.77;2.27;;;19.70;99.90;;;;;;5041197;28;20473;-94
2023/07/12 00:15:22;;;;;;;2.47;2.27;;;19.80;99.90;;;;;;5039921;28;20461;-94
2023/07/12 00:17:49;;;;;;;2.37;2.17;;;19.80;99.90;;;;;;5040400;28;20487;-94
2023/07/12 00:20:25;;;;;;;2.70;2.13;;;19.80;99.90;;;;;;5042218;28;21013;-94
2023/07/12 00:22:52;;;;;;;2.27;2.07;;;19.80;99.90;;;;;;5042005;28;20452;-94
2023/07/12 00:25:21;;;;;;;3.77;2.70;;;19.80;99.90;;;;;;5043093;28;20464;-94
2023/07/12 00:27:49;;;;;;;2.87;1.87;;;19.80;99.90;;;;;;5043959;28;20468;-94
2023/07/12 00:30:22;;;;;;;1.83;1.60;;;19.90;99.90;;;;;;5042961;28;20489;-94
2023/07/12 00:32:49;;;;;;;2.77;1.90;;;19.90;99.90;;;;;;5041182;28;20429;-93
2023/07/12 00:35:19;;;;;;;2.37;2.17;;;19.90;99.90;;;;;;5040007;28;20466;-94
2023/07/12 00:37:46;;;;;;;2.77;2.50;;;19.90;99.90;;;;;;5041285;28;20465;-94
2023/07/12 00:40:34;;;;;;;2.43;2.23;;;19.90;99.90;;;;;;5038911;28;20480;-94
2023/07/12 00:43:10;;;;;;;2.33;1.93;;;20.00;99.90;;;;;;5028841;28;20471;-93
2023/07/12 00:45:38;;;;;;;3.67;2.10;;;19.90;99.90;;;;;;5039437;28;20476;-94
2023/07/12 00:48:10;;;;;;;2.40;2.00;;;19.80;99.90;;;;;;5041295;28;20467;-94
2023/07/12 00:50:37;;;;;;;2.10;1.90;;;19.80;99.90;;;;;;5055911;28;20549;-94
2023/07/12 00:53:03;;;;;;;2.20;2.10;;;19.70;99.90;;;;;;5039916;28;20463;-94
2023/07/12 00:56:03;;;;;;;2.67;2.33;;;19.70;99.90;;;;;;5039877;28;20468;-94
2023/07/12 00:58:36;;;;;;;5.00;2.03;;;19.70;99.90;;;;;;5040504;28;20481;-94
2023/07/12 01:01:03;;;;;;;3.20;2.20;;;19.80;99.90;;;;;;5039105;28;20980;-94
2023/07/12 01:03:33;;;;;;;2.50;1.83;;;19.80;99.90;;;;;;5036542;28;20487;-93
2023/07/12 01:06:01;;;;;;;7.43;2.00;;;19.70;99.90;;;;;;5035481;28;20460;-94
2023/07/12 01:08:29;;;;;;;2.87;1.87;;;19.70;99.90;;;;;;5036442;28;21023;-93
2023/07/12 01:10:57;;;;;;;2.47;1.60;;;19.70;99.90;;;;;;5037154;28;20460;-94
2023/07/12 01:13:24;;;;;;;3.53;1.80;;;19.70;99.90;;;;;;5037636;28;20830;-94
2023/07/12 01:15:53;;;;;;;2.10;1.93;;;19.70;99.90;;;;;;5037029;28;20520;-94
2023/07/12 01:18:20;;;;;;;2.13;1.90;;;19.80;99.90;;;;;;5039856;28;20797;-94
2023/07/12 01:20:47;;;;;;;2.50;1.83;;;19.80;99.90;;;;;;5040411;28;20460;-93
2023/07/12 01:23:16;;;;;;;2.20;1.70;;;19.80;99.90;;;;;;5042063;28;20460;-93
2023/07/12 01:25:45;;;;;;;2.20;1.87;;;19.80;99.90;;;;;;5041484;28;20460;-94
2023/07/12 01:28:13;;;;;;;3.50;2.43;;;19.80;99.90;;;;;;5043428;28;20471;-94
2023/07/12 01:30:41;;;;;;;2.17;1.90;;;19.80;99.90;;;;;;5045823;28;20490;-93
2023/07/12 01:33:08;;;;;;;2.70;1.93;;;19.80;99.90;;;;;;5046407;28;20818;-93
2023/07/12 01:35:35;;;;;;;2.37;1.80;;;19.80;99.90;;;;;;5045793;28;20832;-93
2023/07/12 01:38:02;;;;;;;2.20;2.00;;;19.90;99.90;;;;;;5046348;28;20467;-93
2023/07/12 01:40:30;;;;;;;2.20;1.83;;;19.90;99.90;;;;;;5044419;28;20456;-94
2023/07/12 01:42:56;;;;;;;3.40;2.00;;;19.90;99.90;;;;;;5042756;28;20899;-93
2023/07/12 01:45:23;;;;;;;2.30;2.10;;;19.90;99.90;;;;;;5047306;28;20464;-93
2023/07/12 01:47:50;;;;;;;2.23;2.03;;;19.90;99.90;;;;;;5044551;28;20476;-93
2023/07/12 01:50:17;;;;;;;2.73;1.80;;;19.90;99.90;;;;;;5043303;28;20496;-94
2023/07/12 01:52:43;;;;;;;2.27;2.07;;;19.80;99.90;;;;;;5043271;28;20468;-94
2023/07/12 01:55:10;;;;;;;2.43;2.10;;;19.70;99.90;;;;;;5043817;28;20471;-94
2023/07/12 01:57:38;;;;;;;3.77;2.33;;;19.60;99.90;;;;;;5044380;28;20518;-93
2023/07/12 02:00:05;;;;;;;2.60;2.07;;;19.50;99.90;;;;;;5044868;28;21039;-94
2023/07/12 02:02:32;;;;;;;2.33;2.07;;;19.40;99.90;;;;;;5046025;28;20559;-94
2023/07/12 02:04:59;;;;;;;5.70;2.27;;;19.40;99.90;;;;;;5044459;28;20460;-93
2023/07/12 02:07:26;;;;;;;2.60;2.40;;;19.30;99.90;;;;;;5044434;28;20465;-94
2023/07/12 02:10:10;;;;;;;1.80;1.70;;;19.30;99.90;;;;;;5041672;28;20495;-93
2023/07/12 02:12:38;;;;;;;2.20;2.00;;;19.30;99.90;;;;;;5042866;28;20460;-94
2023/07/12 02:15:06;;;;;;;1.97;1.80;;;19.30;99.90;;;;;;5042872;28;20453;-94
2023/07/12 02:17:33;;;;;;;2.30;2.10;;;19.30;99.90;;;;;;5042832;28;20471;-94
2023/07/12 02:20:00;;;;;;;3.07;2.10;;;19.30;99.90;;;;;;5040514;28;20476;-93
2023/07/12 02:22:29;;;;;;;3.40;2.33;;;19.30;99.90;;;;;;5038512;28;20977;-94
2023/07/12 02:24:56;;;;;;;5.80;2.67;;;19.40;99.90;;;;;;5038355;28;20833;-93
2023/07/12 02:27:22;;;;;;;3.07;2.20;;;19.40;99.90;;;;;;5038089;28;20469;-93
2023/07/12 02:29:51;;;;;;;2.10;1.90;;;19.40;99.90;;;;;;5037182;28;20488;-94
2023/07/12 02:32:17;;;;;;;3.03;2.13;;;19.50;99.90;;;;;;5040634;28;20460;-95
2023/07/12 02:34:44;;;;;;;2.90;2.00;;;19.50;99.90;;;;;;5041918;28;20468;-95
2023/07/12 02:37:11;;;;;;;2.33;2.13;;;19.40;99.90;;;;;;5040174;28;20464;-94
2023/07/12 02:39:37;;;;;;;2.40;2.03;;;19.40;99.90;;;;;;5039487;28;20502;-93
2023/07/12 02:42:05;;;;;;;4.20;3.40;;;19.40;99.90;;;;;;5039513;28;20468;-93
2023/07/12 02:44:31;;;;;;;2.47;2.00;;;19.40;99.90;;;;;;5039300;28;20472;-94
2023/07/12 02:46:59;;;;;;;2.60;2.40;;;19.40;99.90;;;;;;5039509;28;20946;-93
2023/07/12 02:49:26;;;;;;;3.77;1.90;;;19.40;99.90;;;;;;5042792;28;20480;-93
2023/07/12 02:51:53;;;;;;;3.43;2.07;;;19.40;99.90;;;;;;5040268;28;20461;-93
2023/07/12 02:54:19;;;;;;;2.60;2.40;;;19.40;99.90;;;;;;5035597;28;20449;-93
2023/07/12 02:56:54;;;;;;;3.40;2.10;;;19.40;99.90;;;;;;5035480;28;20495;-92
2023/07/12 02:59:21;;;;;;;3.10;1.97;;;19.40;99.90;;;;;;5016742;28;20481;-92
2023/07/12 03:01:48;;;;;;;2.50;2.30;;;19.40;99.90;;;;;;5012373;28;20465;-94
2023/07/12 03:04:17;;;;;;;2.87;2.60;;;19.40;99.90;;;;;;5015198;28;20468;-91
2023/07/12 03:06:43;;;;;;;2.57;2.27;;;19.50;99.90;;;;;;5014276;28;20541;-92
2023/07/12 03:09:10;;;;;;;2.60;2.30;;;19.50;99.90;;;;;;5015342;28;20854;-92
2023/07/12 03:11:37;;;;;;;2.70;2.50;;;19.50;99.90;;;;;;5015504;28;20473;-92
2023/07/12 03:14:04;;;;;;;3.30;1.97;;;19.50;99.90;;;;;;5014796;28;20472;-92
2023/07/12 03:16:32;;;;;;;2.50;2.27;;;19.50;99.90;;;;;;5015017;28;20840;-93
2023/07/12 03:19:00;;;;;;;5.43;2.20;;;19.40;99.90;;;;;;5015224;28;20476;-92
2023/07/12 03:21:28;;;;;;;3.00;2.47;;;19.50;99.90;;;;;;5017471;28;20462;-93
2023/07/12 03:23:58;;;;;;;2.90;2.70;;;19.40;99.90;;;;;;5010119;28;20473;-92
2023/07/12 03:26:25;;;;;;;4.20;2.40;;;19.40;99.90;;;;;;5015045;28;20947;-92
2023/07/12 03:29:31;;;;;;;3.10;2.50;;;19.40;99.90;;;;;;5015068;28;20481;-91
2023/07/12 03:31:58;;;;;;;6.60;2.53;;;19.40;99.90;;;;;;5014276;28;20457;-91
2023/07/12 03:34:25;;;;;;;4.10;2.80;;;19.40;99.90;;;;;;5013939;28;20492;-91
2023/07/12 03:36:53;;;;;;;2.60;2.40;;;19.40;99.90;;;;;;5014843;28;20469;-90
2023/07/12 03:39:20;;;;;;;2.83;2.40;;;19.40;99.90;;;;;;5014356;28;20485;-92
2023/07/12 03:41:46;;;;;;;4.07;2.30;;;19.40;99.90;;;;;;5014595;28;20565;-92
2023/07/12 03:44:13;;;;;;;4.50;2.80;;;19.40;99.90;;;;;;5013780;28;20986;-90
2023/07/12 03:46:40;;;;;;;2.63;2.10;;;19.40;99.90;;;;;;5014347;28;21037;-92
2023/07/12 03:49:07;;;;;;;2.43;2.20;;;19.40;99.90;;;;;;5013985;28;20494;-91
2023/07/12 03:51:59;;;;;;;2.87;2.47;;;19.40;99.90;;;;;;5015068;28;20461;-92
2023/07/12 03:54:27;;;;;;;2.93;2.13;;;19.30;99.90;;;;;;5017589;28;20457;-91
2023/07/12 03:56:54;;;;;;;3.50;2.40;;;19.30;99.90;;;;;;5014303;28;20468;-92
2023/07/12 03:59:20;;;;;;;2.70;2.40;;;19.30;99.90;;;;;;5013748;28;20492;-91
2023/07/12 04:01:47;;;;;;;5.13;2.80;;;19.30;99.90;;;;;;5014051;28;20996;-91
2023/07/12 04:04:14;;;;;;;3.03;2.70;;;19.30;99.90;;;;;;5013580;28;20461;-91
2023/07/12 04:06:41;;;;;;;4.13;2.77;;;19.30;99.90;;;;;;5013813;28;20480;-93
2023/07/12 04:09:08;;;;;;;4.50;2.27;;;19.30;99.90;;;;;;5015087;28;20485;-91
2023/07/12 04:11:38;;;;;;;5.43;2.43;;;19.30;99.90;;;;;;5014275;28;20827;-91
2023/07/12 04:14:05;;;;;;;3.23;2.50;;;19.40;99.90;;;;;;5014135;28;20530;-91
2023/07/12 04:16:32;;;;;;;3.70;2.57;;;19.40;99.90;;;;;;5014938;28;20470;-91
2023/07/12 04:18:58;;;;;;;4.70;2.70;;;19.40;99.90;;;;;;5013527;28;20536;-92
2023/07/12 04:21:25;;;;;;;3.20;2.30;;;19.40;99.90;;;;;;5013737;28;20462;-91
2023/07/12 04:23:53;;;;;;;4.23;2.50;;;19.40;99.90;;;;;;5013445;28;20507;-91
2023/07/12 04:26:21;;;;;;;5.73;2.47;;;19.40;99.90;;;;;;5013840;28;20461;-91
2023/07/12 04:28:50;;;;;;;2.83;2.47;;;19.40;99.90;;;;;;5013518;28;20569;-92
2023/07/12 04:31:20;;;;;;;3.70;2.60;;;19.40;99.90;;;;;;5013545;28;20473;-91
2023/07/12 04:33:48;;;;;;;3.23;2.70;;;19.40;99.90;;;;;;5013987;28;20469;-91
2023/07/12 04:36:17;;;;;;;5.60;2.33;;;19.40;99.90;;;;;;5013331;28;20501;-91
2023/07/12 04:38:44;;;;;;;3.83;2.73;;;19.40;99.90;;;;;;5013793;28;20513;-92
2023/07/12 04:41:10;;;;;;;7.60;2.60;;;19.40;99.90;;;;;;5013642;28;20467;-91
2023/07/12 04:43:37;;;;;;;3.77;2.67;;;19.50;99.90;;;;;;5014025;28;20461;-91
2023/07/12 04:46:05;;;;;;;3.87;2.60;;;19.40;99.90;;;;;;5014488;28;20461;-91
2023/07/12 04:48:33;;;;;;;5.27;2.50;;;19.50;99.90;;;;;;5014611;28;20486;-91
2023/07/12 04:51:00;;;;;;;5.03;2.97;;;19.50;99.90;;;;;;5024128;28;20473;-92
2023/07/12 04:53:27;;;;;;;3.23;2.67;;;19.60;99.90;;;;;;5031629;28;20469;-91
2023/07/12 04:55:55;;;;;;;4.67;2.90;;;19.60;99.90;;;;;;5020294;28;20503;-91
2023/07/12 04:58:22;;;;;;;4.50;3.13;;;19.60;99.90;;;;;;5019811;28;20484;-91
2023/07/12 05:00:49;;;;;;;5.17;3.23;;;19.60;99.90;;;;;;5020061;28;20461;-92
2023/07/12 05:03:17;;;;;;;6.03;2.73;;;19.60;99.90;;;;;;5020237;28;20461;-92
2023/07/12 05:05:44;;;;;;;3.07;2.70;;;19.70;99.90;;;;;;5020968;28;20464;-92
2023/07/12 05:08:11;;;;;;;2.97;2.47;;;19.70;99.90;;;;;;5019856;28;20458;-92
2023/07/12 05:10:38;;;;;;;4.80;2.80;;;19.70;99.90;;;;;;5020380;28;20480;-92
2023/07/12 05:13:05;;;;;;;3.10;2.80;;;19.60;99.90;;;;;;5020783;28;20515;-92
2023/07/12 05:15:32;;;;;;;3.83;2.30;;;19.60;99.90;;;;;;5021075;28;20963;-93
2023/07/12 05:17:59;;;;;;;3.10;2.70;;;19.70;99.90;;;;;;5019801;28;20471;-91
2023/07/12 05:20:27;;;;;;;5.37;2.70;;;19.70;99.90;;;;;;5020345;28;20477;-92
2023/07/12 05:22:54;;;;;;;3.40;3.10;;;19.70;99.90;;;;;;5020800;28;20464;-93
2023/07/12 05:25:21;;;;;;;3.30;2.87;;;19.70;99.90;;;;;;5021231;28;20464;-92
2023/07/12 05:27:48;;;;;;;3.70;3.37;;;19.70;99.90;;;;;;5020815;28;20475;-92
2023/07/12 05:30:15;;;;;;;5.00;2.80;;;19.80;99.90;;;;;;5020409;28;20481;-92
2023/07/12 05:32:41;;;;;;;2.93;2.60;;;19.80;99.90;;;;;;5022718;28;20461;-92
2023/07/12 05:35:09;;;;;;;3.57;2.80;;;19.90;99.90;;;;;;5020340;28;20472;-91
2023/07/12 05:37:37;;;;;;;3.03;2.17;;;19.90;99.90;;;;;;5020693;28;20466;-91
2023/07/12 05:40:05;;;;;;;4.50;3.70;;;20.00;99.90;;;;;;5021516;28;20481;-92
2023/07/12 05:42:33;;;;;;;3.83;3.43;;;20.00;99.90;;;;;;5020895;28;20515;-92
2023/07/12 05:45:00;;;;;;;3.47;3.17;;;20.00;99.90;;;;;;5020175;28;20473;-92
2023/07/12 05:47:26;;;;;;;3.60;3.20;;;20.10;99.90;;;;;;5020746;28;20469;-92
2023/07/12 05:49:53;;;;;;;5.00;3.20;;;20.10;99.90;;;;;;5020590;28;21032;-92
2023/07/12 05:54:49;;;;;;;3.60;2.90;;;20.10;99.90;;;;;;4975575;28;20517;-73
2023/07/12 05:57:16;;;;;;;4.27;3.50;;;20.10;99.90;;;;;;4986449;28;20611;-73
2023/07/12 05:59:43;;;;;;;3.10;2.80;;;20.20;99.90;;;;;;4996903;28;20458;-74
2023/07/12 06:02:13;;;;;;;6.63;3.80;;;20.30;99.90;;;;;;4996792;28;20475;-73
2023/07/12 06:04:40;;;;;;;3.80;3.10;;;20.30;99.90;;;;;;4981240;28;20459;-73
2023/07/12 06:07:07;;;;;;;3.83;3.50;;;20.30;99.90;;;;;;4974266;28;20474;-73
2023/07/12 06:09:34;;;;;;;5.07;3.37;;;20.30;99.90;;;;;;4974021;28;20459;-73
2023/07/12 06:12:02;;;;;;;3.50;3.20;;;20.40;99.90;;;;;;4989072;28;20822;-73
2023/07/12 06:14:28;;;;;;;6.27;3.47;;;20.40;99.90;;;;;;4993020;28;20462;-74
2023/07/12 06:16:55;;;;;;;4.40;3.67;;;20.50;99.90;;;;;;4985583;28;20482;-72
2023/07/12 06:19:22;;;;;;;3.53;3.20;;;20.50;99.90;;;;;;4993436;28;20462;-70
2023/07/12 06:21:48;;;;;;;3.70;3.40;;;20.50;99.90;;;;;;4985446;28;20463;-70
2023/07/12 06:24:15;;;;;;;5.63;4.30;;;20.50;99.90;;;;;;4984805;28;20490;-69
2023/07/12 06:26:42;;;;;;;3.67;3.37;;;20.60;99.90;;;;;;4993289;28;21101;-73
2023/07/12 06:29:10;;;;;;;4.30;3.33;;;20.50;99.90;;;;;;4985755;28;20962;-72
2023/07/12 06:31:37;;;;;;;4.17;3.40;;;20.60;99.90;;;;;;4981809;28;20861;-73
2023/07/12 06:34:04;;;;;;;4.47;4.03;;;20.70;99.90;;;;;;4988331;28;20475;-68
2023/07/12 06:36:31;;;;;;;4.17;3.63;;;20.70;99.90;;;;;;4993231;28;20483;-68
2023/07/12 06:38:58;;;;;;;3.73;3.43;;;20.80;99.90;;;;;;4985449;28;20473;-74
2023/07/12 06:41:25;;;;;;;7.03;3.80;;;20.90;99.90;;;;;;4983722;28;20460;-74
2023/07/12 06:43:51;;;;;;;3.90;3.20;;;21.00;99.90;;;;;;4981678;28;20464;-71
2023/07/12 06:46:20;;;;;;;4.20;3.90;;;21.20;99.90;;;;;;4990455;28;20473;-72
2023/07/12 06:48:47;;;;;;;4.50;3.87;;;21.30;99.90;;;;;;4989004;28;20825;-73
2023/07/12 06:51:13;;;;;;;6.50;4.20;;;21.40;99.90;;;;;;4974111;28;20490;-73
2023/07/12 06:53:40;;;;;;;4.03;3.63;;;21.50;99.90;;;;;;4994183;28;20471;-73
2023/07/12 06:56:07;;;;;;;5.13;3.63;;;21.50;99.90;;;;;;5012503;28;20469;-69
2023/07/12 06:58:34;;;;;;;4.93;3.70;;;21.60;99.90;;;;;;5012485;28;20815;-74
2023/07/12 07:01:01;;;;;;;4.03;3.63;;;21.70;99.90;;;;;;5021055;28;20455;-73
2023/07/12 07:03:29;;;;;;;4.13;3.73;;;21.80;99.90;;;;;;5012383;28;20461;-75
2023/07/12 07:05:56;;;;;;;5.80;3.60;;;22.00;99.90;;;;;;5025850;28;20951;-75
2023/07/12 07:08:23;;;;;;;3.13;2.83;;;22.10;99.90;;;;;;5014887;28;20485;-73
2023/07/12 07:10:50;;;;;;;3.97;3.50;;;22.10;99.90;;;;;;5020587;28;20505;-72
2023/07/12 07:13:17;;;;;;;3.50;3.20;;;22.10;99.90;;;;;;5028847;28;20460;-75
2023/07/12 07:15:45;;;;;;;5.17;3.37;;;22.10;99.90;;;;;;5023595;28;20463;-74
2023/07/12 07:18:12;;;;;;;3.60;3.23;;;22.10;99.90;;;;;;5024091;28;20482;-74
2023/07/12 07:20:41;;;;;;;4.27;3.83;;;22.10;99.90;;;;;;5012558;28;20472;-70
2023/07/12 07:23:08;;;;;;;3.50;3.20;;;22.20;99.90;;;;;;5012142;28;20482;-74
2023/07/12 07:25:35;;;;;;;4.20;3.13;;;22.20;99.90;;;;;;5013928;28;20951;-74
2023/07/12 07:28:02;;;;;;;5.93;3.80;;;22.30;99.90;;;;;;5012417;28;20806;-75
2023/07/12 07:30:29;;;;;;;2.90;2.70;;;22.30;99.90;;;;;;5011977;28;20490;-73
2023/07/12 07:32:55;;;;;;;4.20;3.60;;;22.40;99.90;;;;;;5013935;28;20974;-74
2023/07/12 07:35:23;;;;;;;5.10;3.27;;;22.40;99.90;;;;;;5011924;28;20833;-74
2023/07/12 07:37:52;;;;;;;3.90;3.27;;;22.40;99.90;;;;;;5012420;28;20485;-72
2023/07/12 07:40:19;;;;;;;3.90;3.43;;;22.50;99.90;;;;;;5020722;28;20918;-71
2023/07/12 07:42:46;;;;;;;3.90;2.97;;;22.50;99.90;;;;;;5031827;28;20462;-70
2023/07/12 07:45:13;;;;;;;3.80;3.10;;;22.60;99.90;;;;;;5031550;28;20467;-70
2023/07/12 07:47:39;;;;;;;3.60;3.30;;;22.60;99.90;;;;;;5023411;28;20487;-73
2023/07/12 07:50:07;;;;;;;5.20;4.30;;;22.60;99.90;;;;;;5087619;23;20502;-93
2023/07/12 07:52:34;;;;;;;4.90;3.60;;;22.60;99.90;;;;;;4984032;28;20513;-93
2023/07/12 07:55:02;;;;;;;4.80;3.63;;;22.70;99.90;;;;;;5001019;28;20539;-93
2023/07/12 07:57:29;;;;;;;4.30;3.90;;;22.80;99.90;;;;;;4984500;28;20480;-92
2023/07/12 07:59:58;;;;;;;4.70;4.30;;;22.90;99.90;;;;;;4983099;28;20485;-92
2023/07/12 08:02:28;;;;;;;4.27;3.53;;;23.00;99.90;;;;;;4981558;28;20483;-91
2023/07/12 08:04:55;;;;;;;3.80;3.50;;;23.00;99.90;;;;;;4979971;28;20521;-92
2023/07/12 08:07:23;;;;;;;5.00;3.77;;;23.10;99.90;;;;;;4979720;28;20470;-92
2023/07/12 08:09:50;;;;;;;3.70;3.40;;;23.20;99.90;;;;;;4980490;28;20484;-93
2023/07/12 08:12:18;;;;;;;5.90;3.17;;;23.20;99.90;;;;;;4979680;28;20483;-92
2023/07/12 08:14:48;;;;;;;4.47;3.90;;;23.20;99.90;;;;;;4980076;28;20494;-93
2023/07/12 08:17:14;;;;;;;5.93;3.53;;;23.20;99.90;;;;;;4979568;28;20471;-92
2023/07/12 08:19:41;;;;;;;5.77;3.80;;;23.20;99.90;;;;;;4978074;28;20553;-92
2023/07/12 08:22:08;;;;;;;3.03;2.73;;;23.30;99.90;;;;;;4979103;28;20467;-92
2023/07/12 08:24:35;;;;;;;6.20;3.90;;;23.50;99.90;;;;;;4980910;28;20464;-93
2023/07/12 08:27:02;;;;;;;3.53;3.23;;;23.50;99.90;;;;;;4980926;28;20566;-93
2023/07/12 08:29:30;;;;;;;3.60;3.30;;;23.60;99.90;;;;;;4981914;28;20498;-91
2023/07/12 08:31:57;;;;;;;3.63;3.23;;;23.60;99.90;;;;;;4981116;28;20484;-92
2023/07/12 08:34:24;;;;;;;3.57;2.87;;;23.70;99.90;;;;;;4979821;28;20475;-92
2023/07/12 08:36:51;;;;;;;3.63;3.30;;;23.70;99.90;;;;;;4980085;28;20877;-93
2023/07/12 08:39:18;;;;;;;3.03;2.73;;;23.80;99.90;;;;;;4987799;28;20535;-93
2023/07/12 08:41:45;;;;;;;3.50;3.20;;;23.80;99.90;;;;;;4991051;28;20459;-94
2023/07/12 08:44:26;;;;;;;3.10;2.80;;;23.90;99.90;;;;;;4990282;28;20514;-93
2023/07/12 08:46:57;;;;;;;3.73;3.07;;;24.00;99.90;;;;;;4986333;28;20463;-94
2023/07/12 08:49:26;;;;;;;3.23;2.93;;;24.10;99.90;;;;;;4981775;28;20449;-92
2023/07/12 08:51:56;;;;;;;3.60;3.30;;;24.10;99.90;;;;;;4977742;28;20512;-94
2023/07/12 08:54:27;;;;;;;3.03;2.80;;;24.10;99.90;;;;;;4984629;28;20473;-95
2023/07/12 08:57:14;;;;;;;3.20;2.90;;;24.20;99.90;;;;;;4996934;28;20487;-96
2023/07/12 08:59:42;;;;;;;3.00;2.60;;;24.20;99.90;;;;;;5031745;23;20496;-70
2023/07/12 09:02:19;;;;;;;2.57;2.37;;;24.30;99.90;;;;;;5016984;28;20458;-75
2023/07/12 09:04:46;;;;;;;2.83;2.53;;;24.40;99.90;;;;;;5021633;28;20454;-75
2023/07/12 09:07:22;;;;;;;3.27;2.50;;;24.50;99.90;;;;;;5041206;28;20542;-71
2023/07/12 09:09:49;;;;;;;3.20;2.50;;;24.70;99.90;;;;;;5038954;28;20455;-73
2023/07/12 09:12:24;;;;;;;3.60;2.90;;;24.80;99.90;;;;;;5030717;28;20509;-76
2023/07/12 09:14:54;;;;;;;2.60;2.40;;;24.90;99.90;;;;;;5038993;28;20466;-70
2023/07/12 09:17:25;;;;;;;2.77;2.40;;;24.90;99.90;;;;;;5030481;28;20979;-69
2023/07/12 09:19:51;;;;;;;2.40;2.20;;;25.00;99.90;;;;;;5030482;28;20888;-71
2023/07/12 09:22:19;;;;;;;2.47;2.27;;;25.10;99.90;;;;;;5030180;28;20823;-70
2023/07/12 09:24:51;;;;;;;3.30;2.60;;;25.20;99.90;;;;;;5030309;28;20463;-71
2023/07/12 09:27:19;;;;;;;2.73;2.47;;;25.20;99.90;;;;;;5030715;28;20484;-71
2023/07/12 09:29:46;;;;;;;2.70;2.47;;;25.20;99.90;;;;;;5032452;28;20554;-71
2023/07/12 09:32:18;;;;;;;3.07;2.73;;;25.40;99.90;;;;;;5044771;28;20491;-72
2023/07/12 09:34:47;;;;;;;2.20;2.00;;;25.40;99.90;;;;;;5030129;28;20983;-69
2023/07/12 09:37:17;;;;;;;2.37;2.20;;;25.40;99.90;;;;;;5030350;28;20490;-71
2023/07/12 09:39:53;;;;;;;2.60;2.30;;;25.50;99.90;;;;;;5049685;28;20457;-70
2023/07/12 09:42:20;;;;;;;2.47;2.27;;;25.60;99.90;;;;;;5049545;28;20973;-74
2023/07/12 09:44:48;;;;;;;3.10;2.70;;;25.60;99.90;;;;;;5045917;28;20853;-73
2023/07/12 09:47:31;;;;;;;3.57;2.50;;;25.60;99.90;;;;;;5054159;28;20485;-70
2023/07/12 09:50:06;;;;;;;4.33;2.73;;;25.70;99.90;;;;;;5029378;28;20461;-69
2023/07/12 09:52:37;;;;;;;5.63;2.63;;;25.70;99.90;;;;;;5053277;28;20479;-70
2023/07/12 09:55:10;;;;;;;2.00;1.90;;;25.70;99.90;;;;;;5053188;28;20473;-68
2023/07/12 09:57:43;;;;;;;2.70;2.50;;;25.70;99.90;;;;;;5053198;28;20892;-71
2023/07/12 10:00:19;;;;;;;3.07;2.67;;;25.80;99.90;;;;;;5045461;28;20477;-70
2023/07/12 10:03:01;;;;;;;4.20;2.47;;;25.90;99.90;;;;;;5034981;28;20897;-69
2023/07/12 10:05:30;;;;;;;2.43;2.23;;;25.90;99.90;;;;;;5041200;28;20846;-70
2023/07/12 10:08:01;;;;;;;2.97;2.70;;;25.90;99.90;;;;;;5033328;28;20475;-69
2023/07/12 10:10:35;;;;;;;5.93;2.83;;;26.00;99.90;;;;;;5033328;28;20458;-70
2023/07/12 10:13:14;;;;;;;3.87;2.23;;;26.10;99.90;;;;;;5033703;28;21020;-70
2023/07/12 10:15:41;;;;;;;3.37;2.70;;;26.20;99.90;;;;;;5032380;28;20811;-70
2023/07/12 10:18:16;;;;;;;2.23;2.00;;;26.20;99.90;;;;;;5046058;28;20483;-70
2023/07/12 10:20:44;;;;;;;2.93;2.63;;;26.30;99.90;;;;;;5052744;28;20470;-70
2023/07/12 10:23:13;;;;;;;3.30;2.50;;;26.50;99.90;;;;;;5053020;28;20838;-70
2023/07/12 10:25:45;;;;;;;4.20;2.63;;;26.60;99.90;;;;;;5035816;28;20943;-70
2023/07/12 10:28:21;;;;;;;3.50;2.70;;;26.60;99.90;;;;;;5052726;28;20569;-70
2023/07/12 10:30:50;;;;;;;5.33;2.80;;;26.70;99.90;;;;;;5051028;28;20466;-69
2023/07/12 10:33:23;;;;;;;3.10;2.50;;;26.80;99.90;;;;;;5032510;28;20481;-70
2023/07/12 10:35:56;;;;;;;3.23;2.93;;;26.90;99.90;;;;;;5032509;28;20467;-70
2023/07/12 10:38:23;;;;;;;2.87;2.33;;;27.10;99.90;;;;;;5032516;28;20473;-69
2023/07/12 10:40:54;;;;;;;3.33;2.77;;;27.10;99.90;;;;;;5032579;28;20460;-70
2023/07/12 10:43:26;;;;;;;3.57;2.90;;;27.30;99.90;;;;;;5032595;28;20461;-70
2023/07/12 10:45:55;;;;;;;2.40;2.20;;;27.30;99.90;;;;;;5032407;28;20460;-70
2023/07/12 10:48:25;;;;;;;3.00;2.57;;;27.20;99.90;;;;;;5032381;28;20488;-70
2023/07/12 10:50:56;;;;;;;3.63;3.03;;;27.10;99.90;;;;;;5031816;28;20468;-73
2023/07/12 10:53:25;;;;;;;3.60;3.30;;;27.10;99.90;;;;;;5032522;28;20491;-73
2023/07/12 10:56:17;;;;;;;4.60;2.57;;;27.00;99.90;;;;;;5050849;28;20459;-72
2023/07/12 10:58:52;;;;;;;2.43;2.10;;;27.10;99.90;;;;;;5043583;28;20531;-75
2023/07/12 11:01:54;;;;;;;4.23;2.93;;;27.00;99.90;;;;;;5033097;28;20456;-73
2023/07/12 11:04:36;;;;;;;3.80;2.70;;;27.00;99.90;;;;;;5032415;28;20855;-71
2023/07/12 11:07:25;;;;;;;3.40;3.10;;;26.80;99.90;;;;;;5032686;28;20488;-74
2023/07/12 11:10:18;;;;;;;2.50;2.30;;;26.70;99.90;;;;;;5032282;28;20496;-71
2023/07/12 11:12:53;;;;;;;4.57;3.17;;;26.50;99.90;;;;;;5032271;28;20484;-71
2023/07/12 11:15:22;;;;;;;4.23;3.37;;;26.50;99.90;;;;;;5032232;28;20460;-74
2023/07/12 11:17:52;;;;;;;4.57;3.83;;;26.60;99.90;;;;;;5040909;28;20488;-75
2023/07/12 11:20:24;;;;;;;3.43;2.87;;;26.60;99.90;;;;;;5032726;28;20552;-74
2023/07/12 11:22:58;;;;;;;3.80;3.40;;;26.60;99.90;;;;;;5033772;28;20835;-74
2023/07/12 11:25:57;;;;;;;3.83;3.10;;;26.70;99.90;;;;;;5051861;28;20485;-70
2023/07/12 11:28:39;;;;;;;3.30;3.00;;;26.80;99.90;;;;;;5026169;28;20539;-70
2023/07/12 11:31:32;;;;;;;3.60;3.00;;;26.80;99.90;;;;;;5035403;28;20509;-73
2023/07/12 11:34:06;;;;;;;3.20;2.90;;;26.90;99.90;;;;;;5018040;28;20464;-73
2023/07/12 11:36:35;;;;;;;3.90;3.50;;;27.10;99.90;;;;;;5031449;28;20558;-76
2023/07/12 11:39:10;;;;;;;3.60;3.00;;;27.30;99.90;;;;;;5031464;28;20472;-70
2023/07/12 11:41:37;;;;;;;4.77;3.27;;;27.40;99.90;;;;;;5047619;28;20951;-74
2023/07/12 11:44:06;;;;;;;4.33;3.37;;;27.50;99.90;;;;;;5042923;28;20463;-74
2023/07/12 11:46:35;;;;;;;4.40;3.10;;;27.60;99.90;;;;;;5036365;28;20519;-76
2023/07/12 11:49:04;;;;;;;3.50;3.20;;;27.80;99.90;;;;;;5032555;28;20552;-76
2023/07/12 11:51:35;;;;;;;4.13;2.90;;;27.90;99.90;;;;;;5031660;28;20821;-75
2023/07/12 11:54:16;;;;;;;2.83;2.63;;;28.00;99.90;;;;;;5041488;28;20466;-75
2023/07/12 11:56:44;;;;;;;3.40;3.10;;;28.10;99.90;;;;;;5051505;28;20511;-73
2023/07/12 11:59:14;;;;;;;3.60;3.20;;;28.10;99.90;;;;;;5023379;28;20468;-74
2023/07/12 12:01:42;;;;;;;3.23;2.93;;;28.10;99.90;;;;;;5030345;28;20508;-74
2023/07/12 12:04:09;;;;;;;2.70;2.50;;;28.20;99.90;;;;;;5022207;28;20467;-74
2023/07/12 12:06:37;;;;;;;3.03;2.73;;;28.10;99.90;;;;;;5030986;28;20489;-70
2023/07/12 12:09:05;;;;;;;3.30;3.00;;;27.90;99.90;;;;;;5033555;28;20460;-71
2023/07/12 12:11:40;;;;;;;3.30;3.00;;;27.80;99.90;;;;;;5044351;28;20555;-72
2023/07/12 12:14:18;;;;;;;6.57;3.60;;;27.70;99.90;;;;;;5050087;28;20462;-71
2023/07/12 12:16:51;;;;;;;3.00;2.70;;;27.80;99.90;;;;;;5042575;28;20834;-73
2023/07/12 12:19:19;;;;;;;7.53;2.87;;;27.90;99.90;;;;;;5031046;28;20464;-71
2023/07/12 12:21:49;;;;;;;3.63;2.77;;;27.80;99.90;;;;;;5031180;28;20462;-72
2023/07/12 12:24:19;;;;;;;2.80;2.60;;;27.80;99.90;;;;;;5030238;28;20472;-70
2023/07/12 12:26:48;;;;;;;4.93;3.03;;;28.00;99.90;;;;;;5030728;28;20486;-71
2023/07/12 12:29:17;;;;;;;4.07;3.37;;;28.20;99.90;;;;;;5030725;28;21305;-70
2023/07/12 12:31:52;;;;;;;3.00;2.80;;;28.10;99.90;;;;;;5030540;28;20522;-74
2023/07/12 12:34:19;;;;;;;4.17;3.40;;;28.20;99.90;;;;;;5030072;28;20483;-72
2023/07/12 12:36:58;;;;;;;3.17;2.90;;;28.30;99.90;;;;;;5030554;28;20488;-73
2023/07/12 12:39:26;;;;;;;2.67;2.47;;;28.60;99.90;;;;;;5030719;28;20497;-74
2023/07/12 12:41:55;;;;;;;4.50;2.80;;;28.70;99.90;;;;;;5030475;28;20464;-71
2023/07/12 12:44:22;;;;;;;2.60;2.40;;;28.90;99.90;;;;;;5029840;28;20472;-73
2023/07/12 12:46:54;;;;;;;4.00;3.03;;;28.80;99.90;;;;;;5030444;28;20483;-73
2023/07/12 12:49:24;;;;;;;3.90;2.90;;;28.90;98.40;;;;;;5050505;28;20467;-73
2023/07/12 12:51:53;;;;;;;3.33;3.07;;;28.90;99.90;;;;;;5042634;28;20464;-74
2023/07/12 12:54:20;;;;;;;3.17;2.87;;;29.00;98.10;;;;;;5050291;28;20486;-70
2023/07/12 12:56:49;;;;;;;2.93;2.73;;;29.10;99.10;;;;;;5050303;28;20829;-70
2023/07/12 12:59:17;;;;;;;3.33;3.03;;;29.10;98.80;;;;;;5050076;28;20490;-69
2023/07/12 13:01:45;;;;;;;2.73;2.53;;;29.10;97.80;;;;;;5050432;28;20561;-70